<?xml version="1.0" encoding="UTF-8" standalone="no" ?>
<gpx xmlns="http://www.topografix.com/GPX/1/1" xmlns:xsi="http://www.w3.org/2001/XMLSchema-instance" xsi:schemaLocation="http://www.topografix.com/GPX/1/1 http://www.topografix.com/GPX/1/1/gpx.xsd" version="1.1" creator="VisuGPX - https://www.visugpx.com">
  <metadata>
    <name>sigean le rieu et les sentiers de roquefort</name>
    <desc><![CDATA[il me manque la fin  car mon gps c'est arrêté............]]></desc>
  </metadata>
  <trk>
    <name><![CDATA[sigean le rieu et les sentiers de roquefort_9]]></name>
    <trkseg>
      <trkpt lat="43.00553" lon="2.9455">
        <ele>79</ele>
        <time>2020-06-03T14:01:57.000Z</time>
      </trkpt>
      <trkpt lat="43.00555" lon="2.94536">
        <ele>79</ele>
        <time>2020-06-03T14:01:59.000Z</time>
      </trkpt>
      <trkpt lat="43.00559" lon="2.94512">
        <ele>79</ele>
        <time>2020-06-03T14:02:02.000Z</time>
      </trkpt>
      <trkpt lat="43.00573" lon="2.94461">
        <ele>79</ele>
        <time>2020-06-03T14:02:08.000Z</time>
      </trkpt>
      <trkpt lat="43.00577" lon="2.94454">
        <ele>79</ele>
        <time>2020-06-03T14:02:09.000Z</time>
      </trkpt>
      <trkpt lat="43.00587" lon="2.94441">
        <ele>79</ele>
        <time>2020-06-03T14:02:11.000Z</time>
      </trkpt>
      <trkpt lat="43.00606" lon="2.94433">
        <ele>79</ele>
        <time>2020-06-03T14:02:14.000Z</time>
      </trkpt>
      <trkpt lat="43.00612" lon="2.94429">
        <ele>79</ele>
        <time>2020-06-03T14:02:15.000Z</time>
      </trkpt>
      <trkpt lat="43.00622" lon="2.94416">
        <ele>79</ele>
        <time>2020-06-03T14:02:17.000Z</time>
      </trkpt>
      <trkpt lat="43.00632" lon="2.94381">
        <ele>79.4</ele>
        <time>2020-06-03T14:02:21.000Z</time>
      </trkpt>
      <trkpt lat="43.00634" lon="2.94373">
        <ele>79.8</ele>
        <time>2020-06-03T14:02:22.000Z</time>
      </trkpt>
      <trkpt lat="43.00636" lon="2.94364">
        <ele>80.2</ele>
        <time>2020-06-03T14:02:23.000Z</time>
      </trkpt>
      <trkpt lat="43.00637" lon="2.94356">
        <ele>81</ele>
        <time>2020-06-03T14:02:24.000Z</time>
      </trkpt>
      <trkpt lat="43.00641" lon="2.94341">
        <ele>81</ele>
        <time>2020-06-03T14:02:26.000Z</time>
      </trkpt>
      <trkpt lat="43.00656" lon="2.94293">
        <ele>81</ele>
        <time>2020-06-03T14:02:32.000Z</time>
      </trkpt>
      <trkpt lat="43.00666" lon="2.94257">
        <ele>81</ele>
        <time>2020-06-03T14:02:37.000Z</time>
      </trkpt>
      <trkpt lat="43.00682" lon="2.94208">
        <ele>81</ele>
        <time>2020-06-03T14:02:44.000Z</time>
      </trkpt>
      <trkpt lat="43.00683" lon="2.94201">
        <ele>81.4</ele>
        <time>2020-06-03T14:02:45.000Z</time>
      </trkpt>
      <trkpt lat="43.00685" lon="2.94194">
        <ele>82</ele>
        <time>2020-06-03T14:02:46.000Z</time>
      </trkpt>
      <trkpt lat="43.00687" lon="2.94188">
        <ele>82.4</ele>
        <time>2020-06-03T14:02:47.000Z</time>
      </trkpt>
      <trkpt lat="43.00689" lon="2.94181">
        <ele>82.8</ele>
        <time>2020-06-03T14:02:48.000Z</time>
      </trkpt>
      <trkpt lat="43.00692" lon="2.94174">
        <ele>83.2</ele>
        <time>2020-06-03T14:02:49.000Z</time>
      </trkpt>
      <trkpt lat="43.00706" lon="2.94127">
        <ele>83.2</ele>
        <time>2020-06-03T14:02:55.000Z</time>
      </trkpt>
      <trkpt lat="43.00705" lon="2.94091">
        <ele>83.2</ele>
        <time>2020-06-03T14:02:59.000Z</time>
      </trkpt>
      <trkpt lat="43.00704" lon="2.94066">
        <ele>83.2</ele>
        <time>2020-06-03T14:03:02.000Z</time>
      </trkpt>
      <trkpt lat="43.00706" lon="2.9405">
        <ele>83.2</ele>
        <time>2020-06-03T14:03:04.000Z</time>
      </trkpt>
      <trkpt lat="43.0072" lon="2.94021">
        <ele>83.2</ele>
        <time>2020-06-03T14:03:08.000Z</time>
      </trkpt>
      <trkpt lat="43.00725" lon="2.94014">
        <ele>83.2</ele>
        <time>2020-06-03T14:03:09.000Z</time>
      </trkpt>
      <trkpt lat="43.00751" lon="2.9397">
        <ele>83.2</ele>
        <time>2020-06-03T14:03:15.000Z</time>
      </trkpt>
      <trkpt lat="43.00761" lon="2.93947">
        <ele>83.6</ele>
        <time>2020-06-03T14:03:18.000Z</time>
      </trkpt>
      <trkpt lat="43.00764" lon="2.93939">
        <ele>84</ele>
        <time>2020-06-03T14:03:19.000Z</time>
      </trkpt>
      <trkpt lat="43.00768" lon="2.93931">
        <ele>84.4</ele>
        <time>2020-06-03T14:03:20.000Z</time>
      </trkpt>
      <trkpt lat="43.00772" lon="2.93923">
        <ele>84.8</ele>
        <time>2020-06-03T14:03:21.000Z</time>
      </trkpt>
      <trkpt lat="43.00776" lon="2.93916">
        <ele>85.2</ele>
        <time>2020-06-03T14:03:22.000Z</time>
      </trkpt>
      <trkpt lat="43.00792" lon="2.93888">
        <ele>85.2</ele>
        <time>2020-06-03T14:03:26.000Z</time>
      </trkpt>
      <trkpt lat="43.00795" lon="2.93879">
        <ele>85.2</ele>
        <time>2020-06-03T14:03:27.000Z</time>
      </trkpt>
      <trkpt lat="43.00798" lon="2.93851">
        <ele>85.2</ele>
        <time>2020-06-03T14:03:30.000Z</time>
      </trkpt>
      <trkpt lat="43.00797" lon="2.93831">
        <ele>85.2</ele>
        <time>2020-06-03T14:03:32.000Z</time>
      </trkpt>
      <trkpt lat="43.00796" lon="2.93813">
        <ele>85.2</ele>
        <time>2020-06-03T14:03:34.000Z</time>
      </trkpt>
      <trkpt lat="43.00796" lon="2.93805">
        <ele>85.2</ele>
        <time>2020-06-03T14:03:35.000Z</time>
      </trkpt>
      <trkpt lat="43.00803" lon="2.93776">
        <ele>85.6</ele>
        <time>2020-06-03T14:03:39.000Z</time>
      </trkpt>
      <trkpt lat="43.00807" lon="2.93769">
        <ele>86</ele>
        <time>2020-06-03T14:03:40.000Z</time>
      </trkpt>
      <trkpt lat="43.00811" lon="2.93763">
        <ele>86.4</ele>
        <time>2020-06-03T14:03:41.000Z</time>
      </trkpt>
      <trkpt lat="43.00815" lon="2.93757">
        <ele>86.8</ele>
        <time>2020-06-03T14:03:42.000Z</time>
      </trkpt>
      <trkpt lat="43.00819" lon="2.9375">
        <ele>87.2</ele>
        <time>2020-06-03T14:03:43.000Z</time>
      </trkpt>
      <trkpt lat="43.00823" lon="2.93743">
        <ele>87.2</ele>
        <time>2020-06-03T14:03:44.000Z</time>
      </trkpt>
      <trkpt lat="43.00829" lon="2.93726">
        <ele>87.2</ele>
        <time>2020-06-03T14:03:46.000Z</time>
      </trkpt>
      <trkpt lat="43.00838" lon="2.93692">
        <ele>87.2</ele>
        <time>2020-06-03T14:03:50.000Z</time>
      </trkpt>
      <trkpt lat="43.0084" lon="2.93683">
        <ele>87.2</ele>
        <time>2020-06-03T14:03:51.000Z</time>
      </trkpt>
      <trkpt lat="43.00847" lon="2.93647">
        <ele>87.2</ele>
        <time>2020-06-03T14:03:55.000Z</time>
      </trkpt>
      <trkpt lat="43.0086" lon="2.93589">
        <ele>87.2</ele>
        <time>2020-06-03T14:04:02.000Z</time>
      </trkpt>
      <trkpt lat="43.00874" lon="2.93571">
        <ele>87.2</ele>
        <time>2020-06-03T14:04:05.000Z</time>
      </trkpt>
      <trkpt lat="43.00879" lon="2.93566">
        <ele>87.6</ele>
        <time>2020-06-03T14:04:06.000Z</time>
      </trkpt>
      <trkpt lat="43.00884" lon="2.93562">
        <ele>88.2</ele>
        <time>2020-06-03T14:04:07.000Z</time>
      </trkpt>
      <trkpt lat="43.00889" lon="2.93559">
        <ele>88.6</ele>
        <time>2020-06-03T14:04:08.000Z</time>
      </trkpt>
      <trkpt lat="43.00893" lon="2.93554">
        <ele>89</ele>
        <time>2020-06-03T14:04:09.000Z</time>
      </trkpt>
      <trkpt lat="43.00897" lon="2.93549">
        <ele>89.4</ele>
        <time>2020-06-03T14:04:10.000Z</time>
      </trkpt>
      <trkpt lat="43.00908" lon="2.93529">
        <ele>89.4</ele>
        <time>2020-06-03T14:04:13.000Z</time>
      </trkpt>
      <trkpt lat="43.00914" lon="2.93514">
        <ele>89.4</ele>
        <time>2020-06-03T14:04:15.000Z</time>
      </trkpt>
      <trkpt lat="43.0093" lon="2.93453">
        <ele>89.4</ele>
        <time>2020-06-03T14:04:22.000Z</time>
      </trkpt>
      <trkpt lat="43.00934" lon="2.93387">
        <ele>89.4</ele>
        <time>2020-06-03T14:04:29.000Z</time>
      </trkpt>
      <trkpt lat="43.00935" lon="2.93377">
        <ele>89.8</ele>
        <time>2020-06-03T14:04:30.000Z</time>
      </trkpt>
      <trkpt lat="43.00935" lon="2.93368">
        <ele>90.4</ele>
        <time>2020-06-03T14:04:31.000Z</time>
      </trkpt>
      <trkpt lat="43.00935" lon="2.93359">
        <ele>90.8</ele>
        <time>2020-06-03T14:04:32.000Z</time>
      </trkpt>
      <trkpt lat="43.00935" lon="2.93349">
        <ele>91.2</ele>
        <time>2020-06-03T14:04:33.000Z</time>
      </trkpt>
      <trkpt lat="43.00936" lon="2.9334">
        <ele>91.6</ele>
        <time>2020-06-03T14:04:34.000Z</time>
      </trkpt>
      <trkpt lat="43.00936" lon="2.93332">
        <ele>91.6</ele>
        <time>2020-06-03T14:04:35.000Z</time>
      </trkpt>
      <trkpt lat="43.00938" lon="2.93323">
        <ele>91.6</ele>
        <time>2020-06-03T14:04:36.000Z</time>
      </trkpt>
      <trkpt lat="43.00944" lon="2.93299">
        <ele>91.6</ele>
        <time>2020-06-03T14:04:40.000Z</time>
      </trkpt>
      <trkpt lat="43.00946" lon="2.93295">
        <ele>92</ele>
        <time>2020-06-03T14:04:41.000Z</time>
      </trkpt>
      <trkpt lat="43.00949" lon="2.93294">
        <ele>92.6</ele>
        <time>2020-06-03T14:04:42.000Z</time>
      </trkpt>
      <trkpt lat="43.00952" lon="2.93295">
        <ele>93</ele>
        <time>2020-06-03T14:04:43.000Z</time>
      </trkpt>
      <trkpt lat="43.00956" lon="2.93298">
        <ele>93.6</ele>
        <time>2020-06-03T14:04:44.000Z</time>
      </trkpt>
      <trkpt lat="43.00959" lon="2.93302">
        <ele>94</ele>
        <time>2020-06-03T14:04:45.000Z</time>
      </trkpt>
      <trkpt lat="43.00968" lon="2.93311">
        <ele>94</ele>
        <time>2020-06-03T14:04:47.000Z</time>
      </trkpt>
      <trkpt lat="43.00973" lon="2.93316">
        <ele>94</ele>
        <time>2020-06-03T14:04:48.000Z</time>
      </trkpt>
      <trkpt lat="43.00984" lon="2.93338">
        <ele>94</ele>
        <time>2020-06-03T14:04:51.000Z</time>
      </trkpt>
      <trkpt lat="43.0099" lon="2.93356">
        <ele>94</ele>
        <time>2020-06-03T14:04:53.000Z</time>
      </trkpt>
      <trkpt lat="43.00997" lon="2.93382">
        <ele>94</ele>
        <time>2020-06-03T14:04:56.000Z</time>
      </trkpt>
      <trkpt lat="43.01008" lon="2.93445">
        <ele>94</ele>
        <time>2020-06-03T14:05:03.000Z</time>
      </trkpt>
      <trkpt lat="43.01016" lon="2.93514">
        <ele>94</ele>
        <time>2020-06-03T14:05:10.000Z</time>
      </trkpt>
      <trkpt lat="43.01023" lon="2.93584">
        <ele>94</ele>
        <time>2020-06-03T14:05:17.000Z</time>
      </trkpt>
      <trkpt lat="43.01032" lon="2.93662">
        <ele>94</ele>
        <time>2020-06-03T14:05:25.000Z</time>
      </trkpt>
      <trkpt lat="43.01034" lon="2.93681">
        <ele>94</ele>
        <time>2020-06-03T14:05:27.000Z</time>
      </trkpt>
      <trkpt lat="43.01039" lon="2.93738">
        <ele>94</ele>
        <time>2020-06-03T14:05:33.000Z</time>
      </trkpt>
      <trkpt lat="43.01048" lon="2.93817">
        <ele>94</ele>
        <time>2020-06-03T14:05:41.000Z</time>
      </trkpt>
      <trkpt lat="43.01049" lon="2.93827">
        <ele>93.6</ele>
        <time>2020-06-03T14:05:42.000Z</time>
      </trkpt>
      <trkpt lat="43.0105" lon="2.93837">
        <ele>93.2</ele>
        <time>2020-06-03T14:05:43.000Z</time>
      </trkpt>
      <trkpt lat="43.01052" lon="2.93847">
        <ele>92.8</ele>
        <time>2020-06-03T14:05:44.000Z</time>
      </trkpt>
      <trkpt lat="43.01053" lon="2.93856">
        <ele>92.4</ele>
        <time>2020-06-03T14:05:45.000Z</time>
      </trkpt>
      <trkpt lat="43.01053" lon="2.93866">
        <ele>91.8</ele>
        <time>2020-06-03T14:05:46.000Z</time>
      </trkpt>
      <trkpt lat="43.01057" lon="2.93906">
        <ele>91.8</ele>
        <time>2020-06-03T14:05:50.000Z</time>
      </trkpt>
      <trkpt lat="43.01065" lon="2.93982">
        <ele>91.8</ele>
        <time>2020-06-03T14:05:58.000Z</time>
      </trkpt>
      <trkpt lat="43.01074" lon="2.94062">
        <ele>92.4</ele>
        <time>2020-06-03T14:06:07.000Z</time>
      </trkpt>
      <trkpt lat="43.01075" lon="2.9407">
        <ele>92.8</ele>
        <time>2020-06-03T14:06:08.000Z</time>
      </trkpt>
      <trkpt lat="43.01078" lon="2.94079">
        <ele>93.2</ele>
        <time>2020-06-03T14:06:09.000Z</time>
      </trkpt>
      <trkpt lat="43.0108" lon="2.94087">
        <ele>93.6</ele>
        <time>2020-06-03T14:06:10.000Z</time>
      </trkpt>
      <trkpt lat="43.01083" lon="2.94095">
        <ele>94</ele>
        <time>2020-06-03T14:06:11.000Z</time>
      </trkpt>
      <trkpt lat="43.0109" lon="2.94111">
        <ele>94</ele>
        <time>2020-06-03T14:06:13.000Z</time>
      </trkpt>
      <trkpt lat="43.01106" lon="2.94151">
        <ele>94.4</ele>
        <time>2020-06-03T14:06:18.000Z</time>
      </trkpt>
      <trkpt lat="43.0111" lon="2.94159">
        <ele>94.8</ele>
        <time>2020-06-03T14:06:19.000Z</time>
      </trkpt>
      <trkpt lat="43.01114" lon="2.94168">
        <ele>95.2</ele>
        <time>2020-06-03T14:06:20.000Z</time>
      </trkpt>
      <trkpt lat="43.01117" lon="2.94176">
        <ele>95.6</ele>
        <time>2020-06-03T14:06:21.000Z</time>
      </trkpt>
      <trkpt lat="43.0112" lon="2.94184">
        <ele>96</ele>
        <time>2020-06-03T14:06:22.000Z</time>
      </trkpt>
      <trkpt lat="43.01138" lon="2.94225">
        <ele>96</ele>
        <time>2020-06-03T14:06:27.000Z</time>
      </trkpt>
      <trkpt lat="43.01165" lon="2.94293">
        <ele>96</ele>
        <time>2020-06-03T14:06:35.000Z</time>
      </trkpt>
      <trkpt lat="43.01188" lon="2.94346">
        <ele>96</ele>
        <time>2020-06-03T14:06:42.000Z</time>
      </trkpt>
      <trkpt lat="43.01212" lon="2.94404">
        <ele>96</ele>
        <time>2020-06-03T14:06:50.000Z</time>
      </trkpt>
    </trkseg>
  </trk>
</gpx>